Arapahoe, CO

8:12 PM MDT on May 22, 2015 (GMT -0600)
KWS | | Change Station
CLOSE
Current Station
Personal Weather Station
Location: Cheyenne Wells, CO
Elevation: 4252 ft
Nearby Weather Stations

Elev 4252 ft 38.82 °N, 102.33 °W | Updated 2 minutes ago

Mostly Cloudy
Mostly Cloudy
56.0 °F
Feels Like 56.0 °F
N
12.0
Wind Variable Wind from SE
Gusts 16.0 mph

Today
High -- | Low -- °F
--% Chance of Precip.
Yesterday
High -- | Low -- °F
Precip. -- in
5:30 AM 8:00 PM
Waxing Crescent, 26% visible
Pressure 29.92 in
Visibility 6.0 miles
Clouds Overcast 300 ft
Dew Point 54 °F
Humidity 92%
Rainfall 0.27 in
Snow Depth Not available.
UV 0 out of 12
Pollen 2.40 out of 12
Air Quality Not available.
Flu Activity Sporadic
METAR KITR 230153Z AUTO 11018G25KT 6SM BR OVC003 12/11 A2997 RMK AO2 PK WND 12027/0133 LTG DSNT W-NE SLP130 T01220111

More Conditions Fewer Conditions

Pressure 29.92 in
Visibility 6.0 miles
Clouds Overcast 300 ft
Dew Point 54 °F
Humidity 92%
Rainfall 0.27 in
Snow Depth Not available.
UV 0 out of 12
Pollen 2.40 out of 12
Air Quality Not available.
Flu Activity Sporadic
METAR KITR 230153Z AUTO 11018G25KT 6SM BR OVC003 12/11 A2997 RMK AO2 PK WND 12027/0133 LTG DSNT W-NE SLP130 T01220111

More Conditions Fewer Conditions

10-Day Weather Forecast

Almanac

Astronomy

May. 22, 2015 Rise Set
Actual Time
Civil Twilight
Nautical Twilight
Astronomical Twilight
Moon
Length of Visible Light
Length of Day
Tomorrow will be .
, % of the Moon is Illuminated

Today's Extremes

State Highs State Lows

Community

WunderPhotos

Upload Photos

1,823,364 photos uploaded!

WunderBlogs® & News

Nearby

Air Quality

  Air Quality AQ Index Pollutant
Not available.

Snow Depth

Station Depth Elevation

Earthquake Activity

City Distance Mag. Time & Date
Minimum magnitude displayed is 2.5.

Coastal Water Temperatures

Place Temperature

Stations

Nearby Weather Stations

Station Location Temp. Windchill Dew Point Humidity Wind Precip. Elev Updated Type